Time;durP1;ratioP1;P1;durP2;ratioP2;P2;SDS_P1;SDS_P2;PMS_P1;PMS_P2;Temp;Humidity;BMP_temperature;BMP_pressure;BME280_temperature;BME280_humidity;BME280_pressure;Samples;Min_cycle;Max_cycle;Signal;HPM_P1;HPM_P2
2023/03/26 00:00:42;;;;;;;4.53;1.45;;;;;;;;;;5073718;28;20044;-61
2023/03/26 00:03:11;;;;;;;3.28;1.63;;;;;;;;;;5062483;28;20443;-62
2023/03/26 00:05:38;;;;;;;3.30;1.05;;;;;;;;;;5071512;28;20155;-62
2023/03/26 00:08:07;;;;;;;3.20;1.15;;;;;;;;;;5069700;28;20041;-62
2023/03/26 00:10:35;;;;;;;2.70;0.93;;;;;;;;;;5066473;28;20055;-62
2023/03/26 00:13:01;;;;;;;6.32;1.50;;;;;;;;;;5051565;28;20048;-62
2023/03/26 00:15:27;;;;;;;5.05;1.55;;;;;;;;;;5072762;28;20036;-62
2023/03/26 00:17:53;;;;;;;2.88;0.93;;;;;;;;;;5057909;28;20041;-62
2023/03/26 00:20:19;;;;;;;1.80;1.02;;;;;;;;;;5056208;28;20504;-62
2023/03/26 00:22:45;;;;;;;3.15;0.90;;;;;;;;;;5056984;28;20056;-62
2023/03/26 00:25:12;;;;;;;1.80;1.02;;;;;;;;;;5055155;28;20372;-63
2023/03/26 00:27:38;;;;;;;1.45;0.80;;;;;;;;;;5057838;28;20526;-62
2023/03/26 00:30:04;;;;;;;2.30;0.50;;;;;;;;;;5054610;28;20064;-62
2023/03/26 00:32:31;;;;;;;2.92;0.60;;;;;;;;;;5059163;28;20044;-62
2023/03/26 00:34:57;;;;;;;1.45;0.40;;;;;;;;;;5053826;28;20078;-62
2023/03/26 00:37:26;;;;;;;1.20;0.40;;;;;;;;;;5054027;28;20624;-62
2023/03/26 00:39:52;;;;;;;2.45;1.13;;;;;;;;;;5057605;28;20048;-61
2023/03/26 00:42:19;;;;;;;4.28;0.75;;;;;;;;;;5062480;28;20083;-62
2023/03/26 00:44:45;;;;;;;2.60;1.10;;;;;;;;;;5058705;28;20045;-62
2023/03/26 00:47:11;;;;;;;2.95;0.95;;;;;;;;;;5052732;28;20542;-62
2023/03/26 00:49:38;;;;;;;4.28;1.00;;;;;;;;;;5060284;28;20376;-62
2023/03/26 00:52:07;;;;;;;4.60;1.50;;;;;;;;;;5064974;28;20041;-62
2023/03/26 00:54:33;;;;;;;6.70;1.65;;;;;;;;;;5064517;28;20500;-62
2023/03/26 00:56:59;;;;;;;6.28;1.80;;;;;;;;;;5060681;28;20255;-62
2023/03/26 00:59:29;;;;;;;4.60;1.02;;;;;;;;;;5065362;28;20388;-62
2023/03/26 01:01:57;;;;;;;3.50;1.10;;;;;;;;;;5063933;28;20048;-62
2023/03/26 01:04:29;;;;;;;2.92;0.60;;;;;;;;;;5067384;28;20071;-62
2023/03/26 01:06:55;;;;;;;3.53;0.98;;;;;;;;;;5062133;28;20155;-62
2023/03/26 01:09:31;;;;;;;4.78;0.85;;;;;;;;;;5064896;28;20250;-62
2023/03/26 01:11:58;;;;;;;3.05;0.90;;;;;;;;;;5055818;28;20117;-60
2023/03/26 01:14:25;;;;;;;3.63;0.80;;;;;;;;;;5058173;28;20044;-62
2023/03/26 01:17:01;;;;;;;2.03;0.63;;;;;;;;;;5062654;28;20059;-61
2023/03/26 01:19:40;;;;;;;1.98;0.80;;;;;;;;;;5060126;28;20047;-62
2023/03/26 01:22:09;;;;;;;2.88;0.73;;;;;;;;;;5059774;28;20037;-62
2023/03/26 01:24:36;;;;;;;3.33;0.90;;;;;;;;;;5062247;28;20063;-62
2023/03/26 01:27:16;;;;;;;12.52;1.77;;;;;;;;;;5063774;28;20040;-62
2023/03/26 01:29:42;;;;;;;3.50;0.98;;;;;;;;;;5061179;28;20498;-62
2023/03/26 01:32:27;;;;;;;1.52;0.80;;;;;;;;;;5063832;28;20051;-62
2023/03/26 01:35:11;;;;;;;5.28;1.80;;;;;;;;;;5063996;28;20712;-61
2023/03/26 01:38:01;;;;;;;1.15;0.60;;;;;;;;;;5064143;28;20048;-62
2023/03/26 01:40:41;;;;;;;1.23;0.60;;;;;;;;;;5055532;28;20495;-62
2023/03/26 01:43:25;;;;;;;1.75;0.43;;;;;;;;;;5048710;28;20561;-62
2023/03/26 01:45:51;;;;;;;1.45;0.40;;;;;;;;;;5063574;28;20048;-62
2023/03/26 01:48:17;;;;;;;0.90;0.50;;;;;;;;;;5064077;28;20104;-62
2023/03/26 01:50:44;;;;;;;0.77;0.40;;;;;;;;;;5061341;28;20053;-62
2023/03/26 01:53:12;;;;;;;1.23;0.50;;;;;;;;;;5053139;28;20040;-62
2023/03/26 01:55:52;;;;;;;1.27;0.32;;;;;;;;;;5059789;28;20052;-62
2023/03/26 01:58:41;;;;;;;4.40;1.02;;;;;;;;;;5064311;28;20509;-62
2023/03/26 02:01:13;;;;;;;2.45;0.60;;;;;;;;;;5055922;28;20040;-62
2023/03/26 02:03:43;;;;;;;1.70;0.43;;;;;;;;;;5062737;28;20084;-61
2023/03/26 02:06:10;;;;;;;0.73;0.20;;;;;;;;;;5054466;28;20056;-61
2023/03/26 02:08:38;;;;;;;0.95;0.50;;;;;;;;;;5056404;28;20049;-62
2023/03/26 02:11:10;;;;;;;0.98;0.70;;;;;;;;;;5059540;28;20041;-62
2023/03/26 02:13:37;;;;;;;3.70;0.73;;;;;;;;;;5052280;28;20049;-62
2023/03/26 02:16:04;;;;;;;1.85;0.45;;;;;;;;;;5058315;28;20039;-62
2023/03/26 02:18:37;;;;;;;0.57;0.32;;;;;;;;;;5054404;28;20098;-61
2023/03/26 02:21:11;;;;;;;1.35;0.30;;;;;;;;;;5057430;28;20051;-62
2023/03/26 02:23:39;;;;;;;2.13;0.50;;;;;;;;;;5050891;28;20044;-62
2023/03/26 02:26:06;;;;;;;1.10;0.50;;;;;;;;;;5058410;28;20144;-62
2023/03/26 02:28:32;;;;;;;1.27;0.88;;;;;;;;;;5053879;28;20041;-62
2023/03/26 02:31:00;;;;;;;0.45;0.25;;;;;;;;;;5053121;28;20105;-62
2023/03/26 02:33:27;;;;;;;2.00;0.57;;;;;;;;;;5053640;28;20084;-62
2023/03/26 02:35:53;;;;;;;1.05;0.52;;;;;;;;;;5053240;28;20049;-62
2023/03/26 02:38:19;;;;;;;1.35;0.38;;;;;;;;;;5053500;28;20083;-63
2023/03/26 02:40:45;;;;;;;0.65;0.40;;;;;;;;;;5053734;28;20136;-63
2023/03/26 02:43:11;;;;;;;0.85;0.38;;;;;;;;;;5053547;28;20048;-62
2023/03/26 02:45:37;;;;;;;1.63;0.70;;;;;;;;;;5057759;28;20584;-63
2023/03/26 02:48:03;;;;;;;1.55;0.63;;;;;;;;;;5052090;28;20098;-62
2023/03/26 02:50:31;;;;;;;0.70;0.30;;;;;;;;;;5059699;28;20044;-62
2023/03/26 02:52:57;;;;;;;1.25;0.60;;;;;;;;;;5052741;28;20049;-63
2023/03/26 02:55:23;;;;;;;2.28;0.50;;;;;;;;;;5060230;28;20070;-62
2023/03/26 02:57:49;;;;;;;2.08;0.57;;;;;;;;;;5060680;28;20044;-62
2023/03/26 03:00:16;;;;;;;4.78;1.40;;;;;;;;;;5056742;28;20071;-61
2023/03/26 03:02:46;;;;;;;4.93;1.00;;;;;;;;;;5060109;28;20094;-62
2023/03/26 03:05:12;;;;;;;3.40;1.27;;;;;;;;;;5055171;28;20051;-62
2023/03/26 03:07:39;;;;;;;5.93;1.13;;;;;;;;;;5059028;28;20201;-62
2023/03/26 03:10:08;;;;;;;2.42;0.85;;;;;;;;;;5063143;28;20054;-63
2023/03/26 03:12:35;;;;;;;3.03;0.75;;;;;;;;;;5054957;28;20091;-62
2023/03/26 03:15:02;;;;;;;2.30;0.93;;;;;;;;;;5054856;28;20040;-62
2023/03/26 03:17:28;;;;;;;2.35;1.15;;;;;;;;;;5062395;28;20083;-62
2023/03/26 03:19:54;;;;;;;2.85;0.65;;;;;;;;;;5061896;28;20076;-62
2023/03/26 03:22:20;;;;;;;4.10;0.95;;;;;;;;;;5061494;28;20076;-63
2023/03/26 03:24:46;;;;;;;4.07;1.00;;;;;;;;;;5061717;28;20079;-62
2023/03/26 03:27:12;;;;;;;1.42;0.63;;;;;;;;;;5062823;28;20631;-62
2023/03/26 03:29:38;;;;;;;0.82;0.70;;;;;;;;;;5062420;28;20086;-62
2023/03/26 03:32:04;;;;;;;0.55;0.40;;;;;;;;;;5061832;28;20051;-62
2023/03/26 03:34:30;;;;;;;5.10;0.82;;;;;;;;;;5054107;28;20049;-63
2023/03/26 03:36:56;;;;;;;1.58;0.40;;;;;;;;;;5054267;28;20093;-62
2023/03/26 03:39:22;;;;;;;1.38;0.50;;;;;;;;;;5062451;28;20051;-62
2023/03/26 03:41:48;;;;;;;3.05;0.88;;;;;;;;;;5062470;28;20055;-63
2023/03/26 03:44:15;;;;;;;1.73;0.55;;;;;;;;;;5062699;28;20036;-62
2023/03/26 03:46:41;;;;;;;0.60;0.20;;;;;;;;;;5061688;28;20053;-63
2023/03/26 03:49:07;;;;;;;1.35;0.52;;;;;;;;;;5061931;28;20094;-62
2023/03/26 03:51:34;;;;;;;2.08;0.98;;;;;;;;;;5063442;28;20040;-62
2023/03/26 03:54:00;;;;;;;2.50;0.50;;;;;;;;;;5065026;28;20804;-63
2023/03/26 03:56:26;;;;;;;3.50;0.45;;;;;;;;;;5066384;28;20051;-63
2023/03/26 03:58:52;;;;;;;1.70;0.35;;;;;;;;;;5066007;28;20043;-62
2023/03/26 04:01:21;;;;;;;1.27;0.30;;;;;;;;;;5060760;28;20080;-63
2023/03/26 04:03:47;;;;;;;1.42;0.60;;;;;;;;;;5065828;28;20048;-63
2023/03/26 04:06:17;;;;;;;2.28;0.40;;;;;;;;;;5065866;28;20519;-61
2023/03/26 04:08:44;;;;;;;0.68;0.32;;;;;;;;;;5065574;28;20450;-63
2023/03/26 04:11:10;;;;;;;2.42;0.57;;;;;;;;;;5059295;28;20052;-62
2023/03/26 04:13:36;;;;;;;0.85;0.13;;;;;;;;;;5058291;28;20084;-62
2023/03/26 04:16:02;;;;;;;1.45;0.40;;;;;;;;;;5052888;28;20036;-62
2023/03/26 04:18:31;;;;;;;0.75;0.75;;;;;;;;;;5062570;28;20041;-61
2023/03/26 04:21:01;;;;;;;3.55;0.60;;;;;;;;;;5054149;28;20156;-61
2023/03/26 04:23:28;;;;;;;0.57;0.32;;;;;;;;;;5057213;28;20048;-62
2023/03/26 04:25:54;;;;;;;1.35;0.30;;;;;;;;;;5050963;28;20049;-62
2023/03/26 04:28:42;;;;;;;1.15;0.20;;;;;;;;;;5061205;28;20041;-62
2023/03/26 04:31:10;;;;;;;1.45;0.30;;;;;;;;;;5050505;28;20488;-62
2023/03/26 04:33:38;;;;;;;0.73;0.22;;;;;;;;;;5058552;28;20048;-63
2023/03/26 04:36:04;;;;;;;0.50;0.10;;;;;;;;;;5058999;28;20095;-63
2023/03/26 04:38:32;;;;;;;2.67;0.50;;;;;;;;;;5059905;28;20040;-62
2023/03/26 04:40:59;;;;;;;0.52;0.38;;;;;;;;;;5057888;28;20123;-62
2023/03/26 04:43:25;;;;;;;1.00;0.63;;;;;;;;;;5055150;28;20139;-62
2023/03/26 04:45:51;;;;;;;1.15;0.30;;;;;;;;;;5061843;28;20048;-62
2023/03/26 04:48:19;;;;;;;0.95;0.30;;;;;;;;;;5056146;28;20124;-62
2023/03/26 04:50:46;;;;;;;0.73;0.20;;;;;;;;;;5056862;28;20048;-62
2023/03/26 04:53:17;;;;;;;0.55;0.20;;;;;;;;;;5056359;28;20045;-63
2023/03/26 04:56:04;;;;;;;1.67;0.45;;;;;;;;;;5050242;28;20440;-61
2023/03/26 04:58:31;;;;;;;2.38;0.30;;;;;;;;;;5050352;28;20064;-63
2023/03/26 05:01:02;;;;;;;2.00;0.50;;;;;;;;;;5051578;28;20171;-63
2023/03/26 05:03:31;;;;;;;1.00;0.20;;;;;;;;;;5058111;28;20488;-62
2023/03/26 05:05:58;;;;;;;1.20;0.50;;;;;;;;;;5054718;28;20053;-61
2023/03/26 05:08:25;;;;;;;1.35;0.47;;;;;;;;;;5057881;28;20050;-63
2023/03/26 05:10:51;;;;;;;0.22;0.22;;;;;;;;;;5054299;28;20051;-61
2023/03/26 05:13:17;;;;;;;0.30;0.20;;;;;;;;;;5058710;28;20720;-63
2023/03/26 05:15:43;;;;;;;0.93;0.50;;;;;;;;;;5055324;28;20193;-61
2023/03/26 05:18:09;;;;;;;1.55;0.50;;;;;;;;;;5053970;28;20484;-62
2023/03/26 05:20:35;;;;;;;4.28;0.57;;;;;;;;;;5060107;28;20051;-61
2023/03/26 05:23:01;;;;;;;2.45;0.85;;;;;;;;;;5053849;28;20044;-62
2023/03/26 05:25:27;;;;;;;5.05;0.93;;;;;;;;;;5053514;28;20056;-62
2023/03/26 05:27:53;;;;;;;3.40;0.63;;;;;;;;;;5054409;28;20400;-62
2023/03/26 05:30:20;;;;;;;2.85;0.95;;;;;;;;;;5056909;28;20063;-62
2023/03/26 05:32:47;;;;;;;0.77;0.38;;;;;;;;;;5056079;28;20048;-63
2023/03/26 05:35:15;;;;;;;2.53;0.73;;;;;;;;;;5054954;28;20197;-62
2023/03/26 05:37:42;;;;;;;1.13;0.55;;;;;;;;;;5050328;28;20526;-62
2023/03/26 05:40:13;;;;;;;1.67;0.50;;;;;;;;;;5053368;28;20684;-62
2023/03/26 05:42:39;;;;;;;2.67;0.95;;;;;;;;;;5053248;28;20051;-63
2023/03/26 05:45:06;;;;;;;1.45;0.68;;;;;;;;;;5056169;28;20087;-62
2023/03/26 05:47:32;;;;;;;2.25;0.43;;;;;;;;;;5056551;28;20037;-63
2023/03/26 05:49:58;;;;;;;3.33;0.70;;;;;;;;;;5051355;28;20051;-61
2023/03/26 05:52:25;;;;;;;5.30;0.98;;;;;;;;;;5054454;28;20037;-63
2023/03/26 05:54:51;;;;;;;2.38;0.60;;;;;;;;;;5062825;28;20044;-62
2023/03/26 05:57:17;;;;;;;2.45;0.57;;;;;;;;;;5065509;28;20517;-62
2023/03/26 05:59:43;;;;;;;1.17;0.63;;;;;;;;;;5053624;28;20499;-63
2023/03/26 06:02:10;;;;;;;0.55;0.30;;;;;;;;;;5053500;28;20430;-62
2023/03/26 06:04:39;;;;;;;3.17;0.55;;;;;;;;;;5058743;28;20044;-62
2023/03/26 06:07:09;;;;;;;0.93;0.32;;;;;;;;;;5052800;28;20057;-63
2023/03/26 06:09:39;;;;;;;2.95;0.80;;;;;;;;;;5053144;28;20045;-64
2023/03/26 06:12:05;;;;;;;4.00;1.38;;;;;;;;;;5054159;28;20045;-63
2023/03/26 06:14:31;;;;;;;4.50;1.20;;;;;;;;;;5052157;28;20412;-61
2023/03/26 06:16:57;;;;;;;2.05;0.93;;;;;;;;;;5049781;28;20414;-63
2023/03/26 06:19:23;;;;;;;1.60;0.77;;;;;;;;;;5055581;28;20389;-63
2023/03/26 06:21:49;;;;;;;1.30;0.50;;;;;;;;;;5053745;28;20773;-63
2023/03/26 06:24:16;;;;;;;5.18;0.98;;;;;;;;;;5052402;28;20123;-63
2023/03/26 06:26:42;;;;;;;3.60;1.10;;;;;;;;;;5054636;28;20059;-63
2023/03/26 06:29:09;;;;;;;5.25;1.67;;;;;;;;;;5051770;28;20041;-62
2023/03/26 06:31:35;;;;;;;2.03;1.33;;;;;;;;;;5051155;28;20040;-62
2023/03/26 06:34:01;;;;;;;3.13;1.92;;;;;;;;;;5054950;28;20047;-62
2023/03/26 06:36:27;;;;;;;3.33;1.42;;;;;;;;;;5054190;28;20045;-61
2023/03/26 06:38:53;;;;;;;5.10;2.05;;;;;;;;;;5053892;28;20045;-62
2023/03/26 06:41:19;;;;;;;1.75;1.00;;;;;;;;;;5051067;28;20124;-62
2023/03/26 06:43:45;;;;;;;2.08;0.88;;;;;;;;;;5055191;28;20568;-62
2023/03/26 06:46:12;;;;;;;2.97;1.05;;;;;;;;;;5052780;28;20128;-63
2023/03/26 06:48:38;;;;;;;2.60;1.33;;;;;;;;;;5057366;28;20076;-63
2023/03/26 06:51:04;;;;;;;2.58;0.85;;;;;;;;;;5053134;28;20120;-62
2023/03/26 06:53:30;;;;;;;3.03;0.90;;;;;;;;;;5055402;28;20041;-62
2023/03/26 06:55:56;;;;;;;5.45;1.27;;;;;;;;;;5053063;28;20059;-61
2023/03/26 06:58:22;;;;;;;2.05;0.75;;;;;;;;;;5058371;28;20044;-62
2023/03/26 07:00:52;;;;;;;2.47;0.98;;;;;;;;;;5046594;28;20048;-62
2023/03/26 07:03:18;;;;;;;4.90;1.50;;;;;;;;;;5043947;28;20041;-62
2023/03/26 07:05:44;;;;;;;6.82;1.40;;;;;;;;;;5055981;28;20056;-61
2023/03/26 07:08:10;;;;;;;2.63;0.85;;;;;;;;;;5056414;28;20041;-62
2023/03/26 07:10:36;;;;;;;4.03;1.45;;;;;;;;;;5056669;28;20048;-61
2023/03/26 07:13:02;;;;;;;1.73;0.90;;;;;;;;;;5048139;28;20041;-62
2023/03/26 07:15:28;;;;;;;5.32;1.17;;;;;;;;;;5052968;28;20040;-61
2023/03/26 07:17:55;;;;;;;6.80;1.85;;;;;;;;;;5043569;28;20041;-63
2023/03/26 07:20:21;;;;;;;1.95;0.82;;;;;;;;;;5060017;28;20056;-62
2023/03/26 07:22:47;;;;;;;4.38;1.40;;;;;;;;;;5049374;28;20041;-63
2023/03/26 07:25:13;;;;;;;4.05;1.13;;;;;;;;;;5054725;28;20376;-63
2023/03/26 07:27:49;;;;;;;2.10;0.90;;;;;;;;;;5053109;28;21003;-63
2023/03/26 07:30:19;;;;;;;3.45;0.98;;;;;;;;;;5059323;28;20830;-62
2023/03/26 07:33:08;;;;;;;3.47;1.08;;;;;;;;;;5058037;28;20047;-62
2023/03/26 07:35:41;;;;;;;5.20;1.48;;;;;;;;;;5061717;28;20040;-62
2023/03/26 07:38:19;;;;;;;3.03;1.48;;;;;;;;;;5055762;28;20076;-62
2023/03/26 07:40:50;;;;;;;3.42;1.20;;;;;;;;;;5053094;28;20041;-63
2023/03/26 07:43:28;;;;;;;5.78;1.27;;;;;;;;;;5057108;28;20048;-62
2023/03/26 07:45:56;;;;;;;5.75;1.90;;;;;;;;;;5050664;28;20041;-62
2023/03/26 07:48:26;;;;;;;6.28;1.40;;;;;;;;;;5056436;28;20052;-62
2023/03/26 07:50:53;;;;;;;3.67;1.38;;;;;;;;;;5056015;28;20140;-62
2023/03/26 07:53:19;;;;;;;4.05;1.05;;;;;;;;;;5057676;28;20035;-62
2023/03/26 07:56:04;;;;;;;6.18;1.80;;;;;;;;;;5057353;28;20805;-63
2023/03/26 07:58:30;;;;;;;5.20;1.35;;;;;;;;;;5059867;28;20075;-62
2023/03/26 08:01:04;;;;;;;8.68;2.03;;;;;;;;;;5052817;28;20582;-62
2023/03/26 08:03:40;;;;;;;3.80;1.73;;;;;;;;;;5059737;28;20068;-62
2023/03/26 08:06:06;;;;;;;3.47;1.23;;;;;;;;;;5058905;28;20388;-62
2023/03/26 08:08:37;;;;;;;7.32;1.38;;;;;;;;;;5055545;28;20051;-62
2023/03/26 08:11:10;;;;;;;6.45;1.52;;;;;;;;;;5054275;28;20045;-63
2023/03/26 08:13:51;;;;;;;5.13;1.67;;;;;;;;;;5051789;28;20048;-62
2023/03/26 08:16:26;;;;;;;4.43;1.38;;;;;;;;;;5060198;28;20059;-62
2023/03/26 08:18:58;;;;;;;5.30;2.15;;;;;;;;;;5052540;28;20063;-62
2023/03/26 08:21:25;;;;;;;5.55;1.55;;;;;;;;;;5061140;28;20083;-63
2023/03/26 08:23:58;;;;;;;5.20;1.35;;;;;;;;;;5051451;28;20060;-62
2023/03/26 08:26:30;;;;;;;3.78;0.98;;;;;;;;;;5057078;28;20507;-62
2023/03/26 08:29:02;;;;;;;7.00;1.52;;;;;;;;;;5056607;28;20507;-62
2023/03/26 08:31:39;;;;;;;5.53;1.77;;;;;;;;;;5060508;28;20561;-63
2023/03/26 08:34:06;;;;;;;4.65;1.23;;;;;;;;;;5055641;28;20128;-63
2023/03/26 08:36:32;;;;;;;4.57;1.13;;;;;;;;;;5057261;28;20600;-62
2023/03/26 08:38:58;;;;;;;4.47;1.35;;;;;;;;;;5054571;28;20487;-62
2023/03/26 08:41:24;;;;;;;6.97;1.60;;;;;;;;;;5059544;28;20051;-62
2023/03/26 08:44:09;;;;;;;2.70;1.40;;;;;;;;;;5048241;28;20423;-63
2023/03/26 08:46:56;;;;;;;4.97;1.45;;;;;;;;;;5049350;28;20084;-63
2023/03/26 08:49:28;;;;;;;4.13;1.48;;;;;;;;;;5053939;28;20044;-62
2023/03/26 08:51:57;;;;;;;5.22;1.73;;;;;;;;;;5055333;28;20055;-62
2023/03/26 08:54:23;;;;;;;8.95;1.50;;;;;;;;;;5057601;28;20048;-62
2023/03/26 08:57:11;;;;;;;4.65;1.30;;;;;;;;;;5054576;28;20530;-62
2023/03/26 08:59:45;;;;;;;7.20;1.20;;;;;;;;;;5062310;28;20041;-63
2023/03/26 09:02:28;;;;;;;5.88;1.33;;;;;;;;;;5053067;28;20051;-63
2023/03/26 09:04:59;;;;;;;3.92;0.98;;;;;;;;;;5059258;28;20741;-63
2023/03/26 09:07:43;;;;;;;4.18;1.48;;;;;;;;;;5061064;28;20060;-62
2023/03/26 09:10:09;;;;;;;4.07;1.50;;;;;;;;;;5060158;28;20040;-62
2023/03/26 09:12:40;;;;;;;5.90;1.88;;;;;;;;;;5050733;28;20041;-62
2023/03/26 09:15:26;;;;;;;6.00;1.50;;;;;;;;;;5043918;28;20106;-63
2023/03/26 09:18:10;;;;;;;3.25;1.23;;;;;;;;;;5048053;28;20493;-62
2023/03/26 09:20:55;;;;;;;5.35;1.50;;;;;;;;;;5040814;28;20052;-61
2023/03/26 09:23:39;;;;;;;4.20;1.30;;;;;;;;;;5040271;28;20056;-62
2023/03/26 09:26:24;;;;;;;3.67;1.48;;;;;;;;;;5054368;28;20051;-63
2023/03/26 09:29:03;;;;;;;4.65;1.10;;;;;;;;;;5060364;28;20048;-63
2023/03/26 09:31:58;;;;;;;5.30;1.30;;;;;;;;;;5055633;28;20045;-63
2023/03/26 09:34:29;;;;;;;3.15;1.00;;;;;;;;;;5025923;28;20061;-64
2023/03/26 09:37:07;;;;;;;3.55;1.15;;;;;;;;;;5051553;28;20115;-63
2023/03/26 09:39:42;;;;;;;4.47;1.33;;;;;;;;;;5052080;28;20043;-63
2023/03/26 09:42:10;;;;;;;4.65;1.75;;;;;;;;;;5056572;28;20044;-63
2023/03/26 09:44:51;;;;;;;7.18;1.88;;;;;;;;;;5056139;28;20079;-63
2023/03/26 09:47:33;;;;;;;3.72;1.42;;;;;;;;;;5045484;28;20056;-63
2023/03/26 09:50:18;;;;;;;4.35;1.13;;;;;;;;;;5049291;28;20056;-62
2023/03/26 09:52:50;;;;;;;4.30;1.65;;;;;;;;;;5045528;28;20411;-62
2023/03/26 09:55:33;;;;;;;5.90;1.77;;;;;;;;;;5047411;28;20056;-62
2023/03/26 09:58:11;;;;;;;5.97;0.98;;;;;;;;;;5052513;28;20060;-62
2023/03/26 10:00:51;;;;;;;6.03;1.35;;;;;;;;;;5036964;28;20051;-61
2023/03/26 10:03:31;;;;;;;3.80;1.58;;;;;;;;;;5054901;28;20053;-62
2023/03/26 10:06:12;;;;;;;5.03;1.30;;;;;;;;;;5040387;28;20045;-62
2023/03/26 10:09:02;;;;;;;4.03;1.27;;;;;;;;;;5035104;28;20129;-62
2023/03/26 10:11:34;;;;;;;7.78;1.58;;;;;;;;;;5028672;28;20148;-62
2023/03/26 10:14:03;;;;;;;8.25;1.65;;;;;;;;;;5035749;28;20410;-62
2023/03/26 10:16:53;;;;;;;5.47;1.52;;;;;;;;;;5040558;28;20052;-62
2023/03/26 10:19:25;;;;;;;6.10;1.67;;;;;;;;;;5063281;28;20836;-63
2023/03/26 10:22:08;;;;;;;6.75;1.20;;;;;;;;;;5050271;28;20119;-62
2023/03/26 10:24:55;;;;;;;4.20;1.35;;;;;;;;;;5033880;28;20053;-63
2023/03/26 10:27:30;;;;;;;5.30;1.63;;;;;;;;;;5034767;28;20045;-61
2023/03/26 10:30:09;;;;;;;7.53;1.40;;;;;;;;;;5046060;28;20049;-62
2023/03/26 10:32:46;;;;;;;4.50;1.55;;;;;;;;;;5049527;28;20095;-62
2023/03/26 10:35:20;;;;;;;10.30;1.98;;;;;;;;;;5051764;28;20052;-62
2023/03/26 10:38:15;;;;;;;4.82;1.20;;;;;;;;;;5047931;28;20457;-61
2023/03/26 10:41:05;;;;;;;5.00;1.52;;;;;;;;;;5039505;28;20454;-62
2023/03/26 10:43:40;;;;;;;6.97;1.60;;;;;;;;;;5040356;28;20430;-61
2023/03/26 10:46:21;;;;;;;2.17;0.80;;;;;;;;;;5041909;28;20102;-60
2023/03/26 10:49:02;;;;;;;4.88;1.33;;;;;;;;;;5033779;28;20049;-62
2023/03/26 10:51:37;;;;;;;6.55;1.42;;;;;;;;;;5041816;28;20055;-61
2023/03/26 10:54:18;;;;;;;2.58;1.17;;;;;;;;;;5041123;28;20110;-62
2023/03/26 10:56:45;;;;;;;5.88;1.70;;;;;;;;;;5032368;28;20037;-62
2023/03/26 10:59:12;;;;;;;5.82;1.48;;;;;;;;;;5030618;28;20075;-61
2023/03/26 11:01:42;;;;;;;5.63;1.80;;;;;;;;;;5034543;28;20205;-61
2023/03/26 11:04:08;;;;;;;2.55;1.08;;;;;;;;;;5040170;28;20191;-61
2023/03/26 11:06:41;;;;;;;7.90;1.20;;;;;;;;;;5033692;28;20491;-62
2023/03/26 11:09:12;;;;;;;6.07;1.92;;;;;;;;;;5050752;28;20080;-62
2023/03/26 11:11:43;;;;;;;3.70;1.05;;;;;;;;;;5045811;28;20041;-63
2023/03/26 11:14:20;;;;;;;8.13;1.48;;;;;;;;;;5040591;28;20095;-63
2023/03/26 11:16:52;;;;;;;6.53;2.10;;;;;;;;;;5043305;28;20461;-63
2023/03/26 11:19:26;;;;;;;2.45;1.40;;;;;;;;;;5043656;28;20047;-62
2023/03/26 11:21:56;;;;;;;6.65;1.65;;;;;;;;;;5046557;28;20072;-62
2023/03/26 11:24:41;;;;;;;5.35;1.85;;;;;;;;;;5058312;28;20482;-62
2023/03/26 11:27:23;;;;;;;3.40;1.20;;;;;;;;;;5054737;28;20041;-62
2023/03/26 11:29:49;;;;;;;3.10;1.05;;;;;;;;;;5053246;28;20041;-63
2023/03/26 11:32:26;;;;;;;7.93;1.67;;;;;;;;;;5055296;28;20040;-63
2023/03/26 11:34:57;;;;;;;2.35;1.23;;;;;;;;;;5046916;28;20439;-63
2023/03/26 11:37:28;;;;;;;5.15;1.20;;;;;;;;;;5055353;28;20373;-63
2023/03/26 11:39:55;;;;;;;3.65;1.48;;;;;;;;;;5061111;28;20470;-63
2023/03/26 11:42:22;;;;;;;6.20;0.77;;;;;;;;;;5054547;28;20407;-64
2023/03/26 11:45:21;;;;;;;4.93;1.42;;;;;;;;;;5050342;28;20080;-63
2023/03/26 11:47:52;;;;;;;7.30;1.27;;;;;;;;;;5038275;28;20139;-63
2023/03/26 11:50:21;;;;;;;6.50;1.02;;;;;;;;;;5056179;28;20044;-63
2023/03/26 11:52:47;;;;;;;7.32;1.52;;;;;;;;;;5056232;28;20044;-63
2023/03/26 11:55:14;;;;;;;3.38;0.75;;;;;;;;;;5054657;28;20403;-63
2023/03/26 11:57:42;;;;;;;2.97;1.13;;;;;;;;;;5056574;28;20057;-63
2023/03/26 12:00:18;;;;;;;4.38;1.30;;;;;;;;;;5050968;28;20033;-62
2023/03/26 12:02:45;;;;;;;4.07;1.48;;;;;;;;;;5041310;28;20056;-62
2023/03/26 12:05:14;;;;;;;5.88;1.52;;;;;;;;;;5044809;28;20761;-63
2023/03/26 12:07:52;;;;;;;3.50;1.25;;;;;;;;;;5037977;28;20048;-64
2023/03/26 12:10:27;;;;;;;4.15;1.50;;;;;;;;;;5051883;28;20143;-64
2023/03/26 12:12:55;;;;;;;3.95;1.25;;;;;;;;;;5048808;28;20093;-64
2023/03/26 12:15:22;;;;;;;3.95;1.20;;;;;;;;;;5053007;28;20530;-64
2023/03/26 12:17:52;;;;;;;4.22;1.20;;;;;;;;;;5056555;28;20045;-64
2023/03/26 12:20:24;;;;;;;4.88;1.15;;;;;;;;;;5052904;28;20053;-64
2023/03/26 12:22:51;;;;;;;6.22;1.60;;;;;;;;;;5053442;28;20044;-64
2023/03/26 12:25:21;;;;;;;3.25;2.08;;;;;;;;;;5052915;28;20124;-64
2023/03/26 12:27:48;;;;;;;9.65;2.03;;;;;;;;;;5049655;28;20073;-64
2023/03/26 12:30:32;;;;;;;2.45;0.95;;;;;;;;;;5049364;28;20043;-64
2023/03/26 12:33:04;;;;;;;12.73;3.50;;;;;;;;;;5050933;28;20045;-64
2023/03/26 12:35:33;;;;;;;5.20;1.83;;;;;;;;;;5048012;28;20415;-64
2023/03/26 12:38:16;;;;;;;6.57;2.97;;;;;;;;;;5052670;28;20681;-64
2023/03/26 12:40:43;;;;;;;4.85;2.95;;;;;;;;;;5043337;28;20048;-64
2023/03/26 12:43:25;;;;;;;5.15;1.95;;;;;;;;;;5048400;28;20049;-64
2023/03/26 12:45:54;;;;;;;6.70;1.60;;;;;;;;;;5045802;28;20048;-64
2023/03/26 12:48:24;;;;;;;5.82;1.55;;;;;;;;;;5051219;28;20076;-64
2023/03/26 12:51:02;;;;;;;4.97;1.95;;;;;;;;;;5047891;28;20442;-64
2023/03/26 12:53:33;;;;;;;8.38;2.00;;;;;;;;;;5048832;28;20033;-64
2023/03/26 12:56:09;;;;;;;5.97;1.85;;;;;;;;;;5048074;28;20397;-64
2023/03/26 12:58:49;;;;;;;8.25;2.00;;;;;;;;;;5050079;28;20045;-64
2023/03/26 13:01:34;;;;;;;8.23;1.70;;;;;;;;;;5045700;28;20408;-64
2023/03/26 13:04:05;;;;;;;4.68;1.40;;;;;;;;;;5054375;28;20052;-64
2023/03/26 13:06:43;;;;;;;5.10;1.73;;;;;;;;;;5046673;28;20059;-64
2023/03/26 13:09:09;;;;;;;4.40;1.30;;;;;;;;;;5046099;28;20053;-64
2023/03/26 13:11:35;;;;;;;5.32;1.33;;;;;;;;;;5046080;28;20112;-64
2023/03/26 13:14:05;;;;;;;2.92;1.30;;;;;;;;;;5048058;28;20554;-64
2023/03/26 13:16:31;;;;;;;7.00;2.05;;;;;;;;;;5053505;28;20040;-64
2023/03/26 13:18:57;;;;;;;5.13;1.20;;;;;;;;;;5051948;28;20051;-64
2023/03/26 13:21:30;;;;;;;6.35;1.70;;;;;;;;;;5048183;28;20044;-64
2023/03/26 13:24:19;;;;;;;5.90;2.00;;;;;;;;;;5050843;28;20044;-65
2023/03/26 13:26:51;;;;;;;2.63;1.15;;;;;;;;;;5035269;28;20056;-65
2023/03/26 13:29:25;;;;;;;6.32;1.88;;;;;;;;;;5039564;28;20055;-64
2023/03/26 13:31:51;;;;;;;5.90;1.38;;;;;;;;;;5055369;28;20044;-64
2023/03/26 13:34:40;;;;;;;4.68;1.17;;;;;;;;;;5047559;28;20044;-65
2023/03/26 13:37:25;;;;;;;3.50;1.30;;;;;;;;;;5054761;28;20040;-64
2023/03/26 13:40:14;;;;;;;5.65;1.25;;;;;;;;;;5053831;28;20439;-64
2023/03/26 13:42:57;;;;;;;3.25;1.10;;;;;;;;;;5042758;28;20136;-65
2023/03/26 13:45:46;;;;;;;3.17;1.17;;;;;;;;;;5047067;28;20151;-66
2023/03/26 13:48:30;;;;;;;1.10;0.50;;;;;;;;;;5055193;28;20052;-66
2023/03/26 13:51:00;;;;;;;7.60;1.92;;;;;;;;;;5056552;28;20053;-66
2023/03/26 13:53:36;;;;;;;7.10;1.33;;;;;;;;;;5060679;28;20052;-66
2023/03/26 13:56:02;;;;;;;8.15;1.88;;;;;;;;;;5054104;28;20044;-66
2023/03/26 13:58:35;;;;;;;12.38;1.77;;;;;;;;;;5031465;28;20045;-65
2023/03/26 14:01:11;;;;;;;3.50;1.20;;;;;;;;;;5051904;28;20068;-67
2023/03/26 14:03:44;;;;;;;10.43;1.80;;;;;;;;;;5055223;28;20400;-66
2023/03/26 14:06:30;;;;;;;6.30;1.50;;;;;;;;;;5055426;28;21068;-65
2023/03/26 14:09:06;;;;;;;11.52;4.88;;;;;;;;;;5051430;28;20064;-65
2023/03/26 14:11:39;;;;;;;9.45;2.00;;;;;;;;;;5054949;28;20090;-65
2023/03/26 14:14:26;;;;;;;10.38;1.92;;;;;;;;;;5054944;28;20095;-65
2023/03/26 14:17:09;;;;;;;2.78;0.85;;;;;;;;;;5051078;28;20064;-65
2023/03/26 14:19:55;;;;;;;9.88;1.67;;;;;;;;;;5055489;28;20479;-66
2023/03/26 14:22:21;;;;;;;5.75;1.58;;;;;;;;;;5053897;28;20089;-66
2023/03/26 14:24:50;;;;;;;3.90;0.80;;;;;;;;;;5056482;28;20700;-66
2023/03/26 14:27:35;;;;;;;4.90;1.50;;;;;;;;;;5053957;28;20052;-66
2023/03/26 14:30:04;;;;;;;4.63;1.35;;;;;;;;;;5056466;28;20162;-64
2023/03/26 14:32:39;;;;;;;6.72;0.90;;;;;;;;;;5057265;28;20045;-65
2023/03/26 14:35:05;;;;;;;5.07;0.75;;;;;;;;;;5050744;28;20049;-65
2023/03/26 14:37:31;;;;;;;6.30;1.77;;;;;;;;;;5057587;28;20052;-65
2023/03/26 14:40:15;;;;;;;6.22;1.35;;;;;;;;;;5053571;28;20052;-65
2023/03/26 14:43:00;;;;;;;6.38;1.30;;;;;;;;;;5053544;28;20727;-65
2023/03/26 14:45:29;;;;;;;4.40;1.50;;;;;;;;;;5053299;28;20051;-65
2023/03/26 14:48:06;;;;;;;6.57;2.42;;;;;;;;;;5052140;28;20080;-65
2023/03/26 14:50:53;;;;;;;4.00;1.55;;;;;;;;;;5047200;28;20051;-65
2023/03/26 14:53:29;;;;;;;5.03;1.67;;;;;;;;;;5051345;28;20143;-65
2023/03/26 14:56:14;;;;;;;9.50;1.30;;;;;;;;;;5051583;28;20040;-65
2023/03/26 14:59:09;;;;;;;7.03;1.55;;;;;;;;;;5053041;28;20159;-65
2023/03/26 15:01:54;;;;;;;8.25;1.98;;;;;;;;;;5044767;28;20051;-65
2023/03/26 15:04:37;;;;;;;2.72;0.95;;;;;;;;;;5052238;28;20057;-65
2023/03/26 15:07:17;;;;;;;7.82;1.77;;;;;;;;;;5051775;28;20079;-65
2023/03/26 15:10:04;;;;;;;2.75;1.38;;;;;;;;;;5051393;28;20053;-65